^^
Grace C. Lehan Memorial Weather Station Historical Data
Daily Summary for January 26, 2021 Units:  Both    English   Metric
Daily Weekly Monthly Yearly
  High: Low: Average:
Temperature: 96.8 °F /  36 °C 70.8 °F /  21.6 °C 82.8 °F /  28.2 °C
Dew Point: 77.5 °F /  25.3 °C 68.4 °F /  20.2 °C 72.4 °F /  22.4 °C
Humidity: 94% 47% 73%
Wind Speed: 0.5mph /  0.8km/h - 0mph /  0km/h
Wind Gust: 5mph /  8km/h - -
Wind- - NW
Pressure: 30.08 in /  1018.5 hPa 29.98 in /  1015.1 hPa -
Precipitation: 0.00 in /  0 mm    
 
 
Tabular Data for January 26, 2021
Time Temperature Dew Point Pressure Wind Wind Speed Wind Gust Humidity Rainfall Rate (Hourly) solar
00:00 75.4 °F /  24.1 °C 70.6 °F /  21.4 °C 30.06in /  1017.8hPa Calm     85% 0.00in /  0mm 0 W/m2
00:09 75.3 °F /  24.1 °C 70.5 °F /  21.4 °C 30.06in /  1017.8hPa Calm     85% 0.00in /  0mm 0 W/m2
00:14 75.3 °F /  24.1 °C 70.5 °F /  21.4 °C 30.06in /  1017.8hPa Calm     85% 0.00in /  0mm 0 W/m2
00:19 75.3 °F /  24.1 °C 70.5 °F /  21.4 °C 30.06in /  1017.8hPa Calm     85% 0.00in /  0mm 0 W/m2
00:24 75.2 °F /  24 °C 70.4 °F /  21.3 °C 30.05in /  1017.5hPa Calm     85% 0.00in /  0mm 0 W/m2
00:29 75.2 °F /  24 °C 70.3 °F /  21.3 °C 30.05in /  1017.5hPa Calm     85% 0.00in /  0mm 0 W/m2
00:34 75.1 °F /  23.9 °C 70.3 °F /  21.3 °C 30.05in /  1017.5hPa Calm     85% 0.00in /  0mm 0 W/m2
00:39 75 °F /  23.9 °C 70.3 °F /  21.3 °C 30.05in /  1017.5hPa Calm     85.4% 0.00in /  0mm 0 W/m2
00:44 74.9 °F /  23.8 °C 70.5 °F /  21.4 °C 30.05in /  1017.5hPa Calm     86% 0.00in /  0mm 0 W/m2
00:49 74.9 °F /  23.8 °C 70.4 °F /  21.3 °C 30.05in /  1017.5hPa Calm     86% 0.00in /  0mm 0 W/m2
00:54 74.8 °F /  23.8 °C 70.3 °F /  21.3 °C 30.05in /  1017.5hPa Calm     86% 0.00in /  0mm 0 W/m2
00:59 74.7 °F /  23.7 °C 70.2 °F /  21.2 °C 30.05in /  1017.5hPa Calm     86% 0.00in /  0mm 0 W/m2
01:04 74.6 °F /  23.7 °C 70.2 °F /  21.2 °C 30.05in /  1017.5hPa Calm     86% 0.00in /  0mm 0 W/m2
01:09 74.5 °F /  23.6 °C 70.1 °F /  21.2 °C 30.05in /  1017.5hPa Calm     86% 0.00in /  0mm 0 W/m2
01:14 74.4 °F /  23.6 °C 70.2 °F /  21.2 °C 30.05in /  1017.5hPa Calm     86.8% 0.00in /  0mm 0 W/m2
01:19 74.4 °F /  23.6 °C 70.2 °F /  21.2 °C 30.05in /  1017.5hPa Calm     87% 0.00in /  0mm 0 W/m2
01:24 74.3 °F /  23.5 °C 70.1 °F /  21.2 °C 30.05in /  1017.5hPa Calm     87% 0.00in /  0mm 0 W/m2
01:29 74.2 °F /  23.4 °C 70.1 °F /  21.2 °C 30.05in /  1017.5hPa Calm     87% 0.00in /  0mm 0 W/m2
01:34 74 °F /  23.3 °C 69.9 °F /  21.1 °C 30.05in /  1017.5hPa Calm     87% 0.00in /  0mm 0 W/m2
01:39 74 °F /  23.3 °C 70 °F /  21.1 °C 30.05in /  1017.5hPa Calm     87.4% 0.00in /  0mm 0 W/m2
01:44 73.9 °F /  23.3 °C 70 °F /  21.1 °C 30.05in /  1017.5hPa Calm     87.7% 0.00in /  0mm 0 W/m2
01:49 73.8 °F /  23.2 °C 70.1 °F /  21.2 °C 30.05in /  1017.5hPa Calm     88% 0.00in /  0mm 0 W/m2
01:54 73.8 °F /  23.2 °C 70 °F /  21.1 °C 30.05in /  1017.5hPa Calm     88% 0.00in /  0mm 0 W/m2
01:59 73.7 °F /  23.2 °C 69.9 °F /  21.1 °C 30.05in /  1017.5hPa Calm     88% 0.00in /  0mm 0 W/m2
02:04 73.7 °F /  23.2 °C 69.9 °F /  21.1 °C 30.05in /  1017.5hPa Calm     88% 0.00in /  0mm 0 W/m2
02:09 73.6 °F /  23.1 °C 69.9 °F /  21.1 °C 30.05in /  1017.5hPa Calm     88% 0.00in /  0mm 0 W/m2
02:14 73.6 °F /  23.1 °C 70 °F /  21.1 °C 30.05in /  1017.5hPa Calm     88.6% 0.00in /  0mm 0 W/m2
02:19 73.5 °F /  23.1 °C 70.1 °F /  21.2 °C 30.04in /  1017.2hPa Calm     89% 0.00in /  0mm 0 W/m2
02:24 73.5 °F /  23.1 °C 70.1 °F /  21.2 °C 30.05in /  1017.5hPa Calm     89% 0.00in /  0mm 0 W/m2
02:29 73.5 °F /  23.1 °C 70 °F /  21.1 °C 30.05in /  1017.5hPa Calm     89% 0.00in /  0mm 0 W/m2
02:34 73.4 °F /  23 °C 70 °F /  21.1 °C 30.05in /  1017.5hPa Calm     89% 0.00in /  0mm 0 W/m2
02:39 73.3 °F /  22.9 °C 69.9 °F /  21.1 °C 30.05in /  1017.5hPa Calm     89% 0.00in /  0mm 0 W/m2
02:44 73.2 °F /  22.9 °C 69.8 °F /  21 °C 30.05in /  1017.5hPa Calm     89% 0.00in /  0mm 0 W/m2
02:49 73.2 °F /  22.9 °C 69.7 °F /  20.9 °C 30.05in /  1017.5hPa Calm     89% 0.00in /  0mm 0 W/m2
02:54 73.1 °F /  22.8 °C 69.7 °F /  20.9 °C 30.05in /  1017.5hPa Calm     89% 0.00in /  0mm 0 W/m2
02:59 73.1 °F /  22.8 °C 69.6 °F /  20.9 °C 30.05in /  1017.5hPa Calm     89% 0.00in /  0mm 0 W/m2
03:04 73 °F /  22.8 °C 69.6 °F /  20.9 °C 30.05in /  1017.5hPa Calm     89% 0.00in /  0mm 0 W/m2
03:09 73 °F /  22.8 °C 69.6 °F /  20.9 °C 30.04in /  1017.2hPa Calm     89% 0.00in /  0mm 0 W/m2
03:14 73 °F /  22.8 °C 69.5 °F /  20.8 °C 30.04in /  1017.2hPa Calm     89% 0.00in /  0mm 0 W/m2
03:19 72.9 °F /  22.7 °C 69.5 °F /  20.8 °C 30.04in /  1017.2hPa Calm     89% 0.00in /  0mm 0 W/m2
03:24 72.9 °F /  22.7 °C 69.5 °F /  20.8 °C 30.05in /  1017.5hPa Calm     89% 0.00in /  0mm 0 W/m2
03:29 72.9 °F /  22.7 °C 69.5 °F /  20.8 °C 30.04in /  1017.2hPa Calm     89% 0.00in /  0mm 0 W/m2
03:34 72.8 °F /  22.7 °C 69.4 °F /  20.8 °C 30.04in /  1017.2hPa Calm     89% 0.00in /  0mm 0 W/m2
03:39 72.8 °F /  22.7 °C 69.3 °F /  20.7 °C 30.04in /  1017.2hPa Calm     89% 0.00in /  0mm 0 W/m2
03:44 72.7 °F /  22.6 °C 69.3 °F /  20.7 °C 30.04in /  1017.2hPa Calm     89% 0.00in /  0mm 0 W/m2
03:49 72.6 °F /  22.6 °C 69.2 °F /  20.7 °C 30.04in /  1017.2hPa Calm     89% 0.00in /  0mm 0 W/m2
03:54 72.5 °F /  22.5 °C 69.1 °F /  20.6 °C 30.04in /  1017.2hPa Calm     89% 0.00in /  0mm 0 W/m2
03:59 72.5 °F /  22.5 °C 69.1 °F /  20.6 °C 30.04in /  1017.2hPa Calm     89% 0.00in /  0mm 0 W/m2
04:00 72.4 °F /  22.4 °C 69 °F /  20.6 °C 30.04in /  1017.2hPa Calm     89% 0.00in /  0mm 0 W/m2
04:09 72.3 °F /  22.4 °C 68.9 °F /  20.5 °C 30.04in /  1017.2hPa Calm     89% 0.00in /  0mm 0 W/m2
04:14 72.2 °F /  22.3 °C 69.1 °F /  20.6 °C 30.04in /  1017.2hPa Calm     89.9% 0.00in /  0mm 0 W/m2
04:19 72.2 °F /  22.3 °C 69.1 °F /  20.6 °C 30.04in /  1017.2hPa Calm     90% 0.00in /  0mm 0 W/m2
04:24 72.1 °F /  22.3 °C 69 °F /  20.6 °C 30.04in /  1017.2hPa Calm     90% 0.00in /  0mm 0 W/m2
04:29 72.1 °F /  22.3 °C 69 °F /  20.6 °C 30.04in /  1017.2hPa Calm     90% 0.00in /  0mm 0 W/m2
04:34 72.1 °F /  22.3 °C 69 °F /  20.6 °C 30.04in /  1017.2hPa Calm     90% 0.00in /  0mm 0 W/m2
04:39 72 °F /  22.2 °C 69.1 °F /  20.6 °C 30.04in /  1017.2hPa Calm     90.4% 0.00in /  0mm 0 W/m2
04:44 72 °F /  22.2 °C 69.2 °F /  20.7 °C 30.04in /  1017.2hPa Calm     91% 0.00in /  0mm 0 W/m2
04:49 71.9 °F /  22.2 °C 69.1 °F /  20.6 °C 30.04in /  1017.2hPa Calm     91% 0.00in /  0mm 0 W/m2
04:54 71.9 °F /  22.2 °C 69.1 °F /  20.6 °C 30.05in /  1017.5hPa Calm     91% 0.00in /  0mm 0 W/m2
04:59 71.7 °F /  22.1 °C 69 °F /  20.6 °C 30.05in /  1017.5hPa Calm     91% 0.00in /  0mm 0 W/m2
05:04 71.7 °F /  22.1 °C 68.9 °F /  20.5 °C 30.05in /  1017.5hPa Calm     91% 0.00in /  0mm 0 W/m2
05:09 71.6 °F /  22 °C 68.8 °F /  20.4 °C 30.05in /  1017.5hPa Calm     91% 0.00in /  0mm 0 W/m2
05:14 71.6 °F /  22 °C 68.8 °F /  20.4 °C 30.05in /  1017.5hPa Calm     91% 0.00in /  0mm 0 W/m2
05:19 71.6 °F /  22 °C 68.9 °F /  20.5 °C 30.05in /  1017.5hPa Calm     91.1% 0.00in /  0mm 0 W/m2
05:24 71.6 °F /  22 °C 69.1 °F /  20.6 °C 30.05in /  1017.5hPa Calm     92% 0.00in /  0mm 0 W/m2
05:29 71.5 °F /  21.9 °C 69.1 °F /  20.6 °C 30.05in /  1017.5hPa Calm     92% 0.00in /  0mm 0 W/m2
05:34 71.4 °F /  21.9 °C 69 °F /  20.6 °C 30.06in /  1017.8hPa Calm     92% 0.00in /  0mm 0 W/m2
05:39 71.3 °F /  21.8 °C 68.9 °F /  20.5 °C 30.06in /  1017.8hPa Calm     92% 0.00in /  0mm 0 W/m2
05:44 71.3 °F /  21.8 °C 68.8 °F /  20.4 °C 30.06in /  1017.8hPa Calm     92% 0.00in /  0mm 0 W/m2
05:49 71.2 °F /  21.8 °C 68.5 °F /  20.3 °C 30.06in /  1017.8hPa Calm     91.3% 0.00in /  0mm 0 W/m2
05:54 71.1 °F /  21.7 °C 68.7 °F /  20.4 °C 30.06in /  1017.8hPa Calm     92% 0.00in /  0mm 0 W/m2
05:59 71.1 °F /  21.7 °C 68.6 °F /  20.3 °C 30.07in /  1018.2hPa Calm     92% 0.00in /  0mm 0 W/m2
06:04 71 °F /  21.7 °C 68.6 °F /  20.3 °C 30.07in /  1018.2hPa Calm     92% 0.00in /  0mm 0 W/m2
06:09 71 °F /  21.7 °C 68.6 °F /  20.3 °C 30.07in /  1018.2hPa Calm     92% 0.00in /  0mm 0 W/m2
06:14 70.9 °F /  21.6 °C 68.5 °F /  20.3 °C 30.07in /  1018.2hPa Calm     92% 0.00in /  0mm 0 W/m2
06:19 70.9 °F /  21.6 °C 68.4 °F /  20.2 °C 30.07in /  1018.2hPa Calm     92% 0.00in /  0mm 5 W/m2
06:24 70.8 °F /  21.6 °C 68.4 °F /  20.2 °C 30.07in /  1018.2hPa Calm     92% 0.00in /  0mm 7 W/m2
06:29 70.8 °F /  21.6 °C 68.4 °F /  20.2 °C 30.07in /  1018.2hPa Calm     92% 0.00in /  0mm 11 W/m2
06:34 70.8 °F /  21.6 °C 68.6 °F /  20.3 °C 30.07in /  1018.2hPa Calm     92.7% 0.00in /  0mm 12 W/m2
06:39 70.8 °F /  21.6 °C 68.7 °F /  20.4 °C 30.07in /  1018.2hPa Calm     93% 0.00in /  0mm 16 W/m2
06:44 70.8 °F /  21.6 °C 68.7 °F /  20.4 °C 30.08in /  1018.5hPa Calm     93% 0.00in /  0mm 21 W/m2
06:49 70.8 °F /  21.6 °C 68.7 °F /  20.4 °C 30.08in /  1018.5hPa Calm     93% 0.00in /  0mm 30 W/m2
06:54 70.8 °F /  21.6 °C 68.7 °F /  20.4 °C 30.08in /  1018.5hPa Calm     93% 0.00in /  0mm 76 W/m2
06:59 71 °F /  21.7 °C 69 °F /  20.6 °C 30.08in /  1018.5hPa Calm     93.4% 0.00in /  0mm 84 W/m2
07:04 71.2 °F /  21.8 °C 69.4 °F /  20.8 °C 30.07in /  1018.2hPa Calm     94% 0.00in /  0mm 97 W/m2
07:09 71.7 °F /  22.1 °C 69.8 °F /  21 °C 30.08in /  1018.5hPa Calm     94% 0.00in /  0mm 90 W/m2
07:14 72 °F /  22.2 °C 70.2 °F /  21.2 °C 30.08in /  1018.5hPa Calm     94% 0.00in /  0mm 100 W/m2
07:19 72.4 °F /  22.4 °C 70.5 °F /  21.4 °C 30.08in /  1018.5hPa Calm     93.7% 0.00in /  0mm 88 W/m2
07:24 72.6 °F /  22.6 °C 70.5 °F /  21.4 °C 30.08in /  1018.5hPa Calm     93% 0.00in /  0mm 62 W/m2
07:29 72.8 °F /  22.7 °C 70.3 °F /  21.3 °C 30.08in /  1018.5hPa Calm     92% 0.00in /  0mm 83 W/m2
07:34 72.9 °F /  22.7 °C 70.5 °F /  21.4 °C 30.08in /  1018.5hPa Calm     92% 0.00in /  0mm 153 W/m2
07:39 73.2 °F /  22.9 °C 70.6 °F /  21.4 °C 30.08in /  1018.5hPa Calm     91.7% 0.00in /  0mm 137 W/m2
07:44 73.4 °F /  23 °C 70.6 °F /  21.4 °C 30.08in /  1018.5hPa Calm     91% 0.00in /  0mm 79 W/m2
07:49 73.6 °F /  23.1 °C 70.8 °F /  21.6 °C 30.08in /  1018.5hPa Calm     91% 0.00in /  0mm 86 W/m2
07:54 73.8 °F /  23.2 °C 71 °F /  21.7 °C 30.08in /  1018.5hPa Calm     91% 0.00in /  0mm 86 W/m2
07:59 74 °F /  23.3 °C 71 °F /  21.7 °C 30.08in /  1018.5hPa Calm     90.3% 0.00in /  0mm 81 W/m2
08:00 74.2 °F /  23.4 °C 71.4 °F /  21.9 °C 30.08in /  1018.5hPa Calm     91% 0.00in /  0mm 79 W/m2
08:09 74.6 °F /  23.7 °C 71.5 °F /  21.9 °C 30.08in /  1018.5hPa Calm     90% 0.00in /  0mm 257 W/m2
08:14 74.9 °F /  23.8 °C 71.8 °F /  22.1 °C 30.08in /  1018.5hPa Calm     90% 0.00in /  0mm 283 W/m2
08:19 75.4 °F /  24.1 °C 72.2 °F /  22.3 °C 30.08in /  1018.5hPa Calm     89.8% 0.00in /  0mm 302 W/m2
08:24 76.1 °F /  24.5 °C 72.6 °F /  22.6 °C 30.08in /  1018.5hPa Calm     89% 0.00in /  0mm 320 W/m2
08:29 77 °F /  25 °C 73.1 °F /  22.8 °C 30.08in /  1018.5hPa Calm     87.8% 0.00in /  0mm 336 W/m2
08:34 78.1 °F /  25.6 °C 73.6 °F /  23.1 °C 30.08in /  1018.5hPa Calm     86% 0.00in /  0mm 355 W/m2
08:39 79.2 °F /  26.2 °C 73.7 °F /  23.2 °C 30.08in /  1018.5hPa Calm     83.4% 0.00in /  0mm 371 W/m2
08:44 80.1 °F /  26.7 °C 74 °F /  23.3 °C 30.08in /  1018.5hPa Calm     81.6% 0.00in /  0mm 385 W/m2
08:49 81 °F /  27.2 °C 74.1 °F /  23.4 °C 30.08in /  1018.5hPa Calm     79.4% 0.00in /  0mm 403 W/m2
08:54 81.7 °F /  27.6 °C 74.4 °F /  23.6 °C 30.08in /  1018.5hPa Calm     78.5% 0.00in /  0mm 420 W/m2
08:57 82.3 °F /  27.9 °C 74.7 °F /  23.7 °C 30.08in /  1018.5hPa Calm     78% 0.00in /  0mm 429 W/m2
09:00 82.9 °F /  28.3 °C 75.3 °F /  24.1 °C 30.08in /  1018.5hPa Calm     78% 0.00in /  0mm 390 W/m2
09:30 85.9 °F /  29.9 °C 75.8 °F /  24.3 °C 30.08in /  1018.5hPa Calm     72% 0.00in /  0mm 479 W/m2
10:00 88.1 °F /  31.2 °C 76.2 °F /  24.6 °C 30.07in /  1018.2hPa Calm     68% 0.00in /  0mm 569 W/m2
10:30 90.9 °F /  32.7 °C 77.5 °F /  25.3 °C 30.07in /  1018.2hPa Calm     65% 0.00in /  0mm 649 W/m2
11:00 91.4 °F /  33 °C 77 °F /  25 °C 30.07in /  1018.2hPa Calm     63% 0.00in /  0mm 707 W/m2
11:30 93.6 °F /  34.2 °C 76.6 °F /  24.8 °C 30.06in /  1017.8hPa Calm     58% 0.00in /  0mm 760 W/m2
12:04 93.7 °F /  34.3 °C 77 °F /  25 °C 30.06in /  1017.8hPa Calm     58.6% 0.00in /  0mm 745 W/m2
12:09 93.7 °F /  34.3 °C 76 °F /  24.4 °C 30.06in /  1017.8hPa Calm     56.8% 0.00in /  0mm 125 W/m2
12:14 93.6 °F /  34.2 °C 76.5 °F /  24.7 °C 30.05in /  1017.5hPa Calm     57.8% 0.00in /  0mm 248 W/m2
12:19 93.6 °F /  34.2 °C 76.5 °F /  24.7 °C 30.05in /  1017.5hPa Calm   1mph /  1.6km/h 57.8% 0.00in /  0mm 318 W/m2
12:24 93.4 °F /  34.1 °C 75.9 °F /  24.4 °C 30.05in /  1017.5hPa Calm   1mph /  1.6km/h 57% 0.00in /  0mm 167 W/m2
12:29 93.1 °F /  33.9 °C 75.2 °F /  24 °C 30.05in /  1017.5hPa Calm   1mph /  1.6km/h 56.1% 0.00in /  0mm 142 W/m2
12:34 92.7 °F /  33.7 °C 74.3 °F /  23.5 °C 30.05in /  1017.5hPa Calm   1mph /  1.6km/h 55.3% 0.00in /  0mm 165 W/m2
12:39 92.5 °F /  33.6 °C 75.4 °F /  24.1 °C 30.05in /  1017.5hPa Calm     57.7% 0.00in /  0mm 823 W/m2
12:44 92.6 °F /  33.7 °C 75.5 °F /  24.2 °C 30.05in /  1017.5hPa Calm     57.7% 0.00in /  0mm 823 W/m2
12:49 92.8 °F /  33.8 °C 75.2 °F /  24 °C 30.05in /  1017.5hPa Calm     56.6% 0.00in /  0mm 833 W/m2
12:54 93 °F /  33.9 °C 75.1 °F /  23.9 °C 30.05in /  1017.5hPa Calm     56.3% 0.00in /  0mm 835 W/m2
12:59 93.1 °F /  33.9 °C 75.2 °F /  24 °C 30.04in /  1017.2hPa Calm     56.3% 0.00in /  0mm 835 W/m2
13:04 93.2 °F /  34 °C 74.7 °F /  23.7 °C 30.04in /  1017.2hPa Calm     55.1% 0.00in /  0mm 853 W/m2
13:09 93.3 °F /  34.1 °C 76.3 °F /  24.6 °C 30.04in /  1017.2hPa Calm     57.9% 0.00in /  0mm 853 W/m2
13:14 93.5 °F /  34.2 °C 75.7 °F /  24.3 °C 30.04in /  1017.2hPa Calm     56.4% 0.00in /  0mm 847 W/m2
13:19 93.6 °F /  34.2 °C 74.7 °F /  23.7 °C 30.04in /  1017.2hPa Calm     54.4% 0.00in /  0mm 846 W/m2
13:24 93.7 °F /  34.3 °C 75 °F /  23.9 °C 30.04in /  1017.2hPa Calm     54.8% 0.00in /  0mm 840 W/m2
13:29 94 °F /  34.4 °C 75.5 °F /  24.2 °C 30.03in /  1016.8hPa NW 0.2mph /  0.3km/h 2mph /  3.2km/h 55.2% 0.00in /  0mm 835 W/m2
13:34 94.4 °F /  34.7 °C 74.8 °F /  23.8 °C 30.03in /  1016.8hPa Calm   2mph /  3.2km/h 53.3% 0.00in /  0mm 835 W/m2
13:39 94.4 °F /  34.7 °C 74.4 °F /  23.6 °C 30.03in /  1016.8hPa Calm     52.5% 0.00in /  0mm 828 W/m2
13:44 94.2 °F /  34.6 °C 73.7 °F /  23.2 °C 30.03in /  1016.8hPa Calm     51.6% 0.00in /  0mm 823 W/m2
13:49 94.4 °F /  34.7 °C 73.9 °F /  23.3 °C 30.03in /  1016.8hPa Calm     51.7% 0.00in /  0mm 819 W/m2
13:54 94.9 °F /  34.9 °C 73 °F /  22.8 °C 30.03in /  1016.8hPa Calm     49.5% 0.00in /  0mm 814 W/m2
13:59 95.3 °F /  35.2 °C 73.8 °F /  23.2 °C 30.03in /  1016.8hPa Calm     50% 0.00in /  0mm 809 W/m2
14:04 95.7 °F /  35.4 °C 74.1 °F /  23.4 °C 30.03in /  1016.8hPa Calm     50% 0.00in /  0mm 809 W/m2
14:09 96 °F /  35.6 °C 74 °F /  23.3 °C 30.02in /  1016.5hPa Calm     49.4% 0.00in /  0mm 793 W/m2
14:14 95.9 °F /  35.5 °C 73.9 °F /  23.3 °C 30.02in /  1016.5hPa Calm     49.3% 0.00in /  0mm 788 W/m2
14:19 95.5 °F /  35.3 °C 73.7 °F /  23.2 °C 30.02in /  1016.5hPa Calm     49.6% 0.00in /  0mm 779 W/m2
14:24 95.4 °F /  35.2 °C 74 °F /  23.3 °C 30.02in /  1016.5hPa Calm     50.3% 0.00in /  0mm 780 W/m2
14:29 95.5 °F /  35.3 °C 75 °F /  23.9 °C 30.02in /  1016.5hPa NW 0.1mph /  0.2km/h 3mph /  4.8km/h 51.9% 0.00in /  0mm 772 W/m2
14:34 95.6 °F /  35.3 °C 73.9 °F /  23.3 °C 30.02in /  1016.5hPa Calm   3mph /  4.8km/h 49.8% 0.00in /  0mm 759 W/m2
14:39 95.6 °F /  35.3 °C 73.7 °F /  23.2 °C 30.02in /  1016.5hPa Calm     49.4% 0.00in /  0mm 770 W/m2
14:44 95.8 °F /  35.4 °C 74.3 °F /  23.5 °C 30.02in /  1016.5hPa Calm   1mph /  1.6km/h 50.2% 0.00in /  0mm 735 W/m2
14:49 95.8 °F /  35.4 °C 74 °F /  23.3 °C 30.02in /  1016.5hPa Calm   1mph /  1.6km/h 49.6% 0.00in /  0mm 729 W/m2
14:54 95.8 °F /  35.4 °C 73.5 °F /  23.1 °C 30.02in /  1016.5hPa Calm   1mph /  1.6km/h 48.9% 0.00in /  0mm 719 W/m2
14:59 95.8 °F /  35.4 °C 73.3 °F /  22.9 °C 30.02in /  1016.5hPa NW 0.5mph /  0.8km/h 5mph /  8km/h 48.5% 0.00in /  0mm 707 W/m2
15:04 96 °F /  35.6 °C 73.7 °F /  23.2 °C 30.01in /  1016.1hPa WNW 0.1mph /  0.2km/h 5mph /  8km/h 49% 0.00in /  0mm 696 W/m2
15:09 96.4 °F /  35.8 °C 74.3 °F /  23.5 °C 30.01in /  1016.1hPa Calm   2mph /  3.2km/h 49.3% 0.00in /  0mm 687 W/m2
15:14 96.4 °F /  35.8 °C 73.3 °F /  22.9 °C 30.01in /  1016.1hPa Calm   2mph /  3.2km/h 47.7% 0.00in /  0mm 675 W/m2
15:19 96.5 °F /  35.8 °C 73.3 °F /  22.9 °C 30.01in /  1016.1hPa Calm   2mph /  3.2km/h 47.6% 0.00in /  0mm 663 W/m2
15:24 96.7 °F /  35.9 °C 73.8 °F /  23.2 °C 30.01in /  1016.1hPa Calm   2mph /  3.2km/h 48% 0.00in /  0mm 652 W/m2
15:29 96.8 °F /  36 °C 74.2 °F /  23.4 °C 30.01in /  1016.1hPa Calm   2mph /  3.2km/h 48.6% 0.00in /  0mm 643 W/m2
15:34 96.6 °F /  35.9 °C 74.7 °F /  23.7 °C 30.01in /  1016.1hPa Calm   2mph /  3.2km/h 49.5% 0.00in /  0mm 626 W/m2
15:39 96.5 °F /  35.8 °C 74.6 °F /  23.7 °C 30.01in /  1016.1hPa Calm   2mph /  3.2km/h 49.6% 0.00in /  0mm 613 W/m2
15:44 96.4 °F /  35.8 °C 74 °F /  23.3 °C 30.00in /  1015.8hPa WNW 0.1mph /  0.2km/h 2mph /  3.2km/h 48.8% 0.00in /  0mm 606 W/m2
15:49 96.4 °F /  35.8 °C 74 °F /  23.3 °C 30.00in /  1015.8hPa WNW 0.1mph /  0.2km/h 2mph /  3.2km/h 48.7% 0.00in /  0mm 598 W/m2
15:54 96.5 °F /  35.8 °C 74.2 °F /  23.4 °C 30.00in /  1015.8hPa Calm   2mph /  3.2km/h 48.9% 0.00in /  0mm 584 W/m2
15:59 96.6 °F /  35.9 °C 73.5 °F /  23.1 °C 30.00in /  1015.8hPa Calm   2mph /  3.2km/h 47.6% 0.00in /  0mm 561 W/m2
16:04 96.1 °F /  35.6 °C 72.6 °F /  22.6 °C 29.99in /  1015.5hPa Calm     47% 0.00in /  0mm 503 W/m2
16:09 95.9 °F /  35.5 °C 72.7 °F /  22.6 °C 30.00in /  1015.8hPa Calm   1mph /  1.6km/h 47.4% 0.00in /  0mm 503 W/m2
16:14 95.4 °F /  35.2 °C 73.5 °F /  23.1 °C 29.99in /  1015.5hPa Calm   1mph /  1.6km/h 49.4% 0.00in /  0mm 72 W/m2
16:19 95.1 °F /  35.1 °C 73.4 °F /  23 °C 29.99in /  1015.5hPa Calm   1mph /  1.6km/h 49.8% 0.00in /  0mm 69 W/m2
16:24 94.8 °F /  34.9 °C 72.8 °F /  22.7 °C 29.99in /  1015.5hPa Calm   1mph /  1.6km/h 49.2% 0.00in /  0mm 65 W/m2
16:29 94.5 °F /  34.7 °C 73.5 °F /  23.1 °C 29.99in /  1015.5hPa Calm   1mph /  1.6km/h 50.9% 0.00in /  0mm 63 W/m2
16:34 94.3 °F /  34.6 °C 73.5 °F /  23.1 °C 29.99in /  1015.5hPa Calm   1mph /  1.6km/h 51.1% 0.00in /  0mm 63 W/m2
16:39 94.2 °F /  34.6 °C 73.4 °F /  23 °C 29.99in /  1015.5hPa Calm     51.2% 0.00in /  0mm 63 W/m2
16:44 94 °F /  34.4 °C 73.4 °F /  23 °C 29.99in /  1015.5hPa Calm     51.5% 0.00in /  0mm 60 W/m2
16:49 93.9 °F /  34.4 °C 74.1 °F /  23.4 °C 29.99in /  1015.5hPa Calm     52.9% 0.00in /  0mm 58 W/m2
16:54 93.8 °F /  34.3 °C 74.5 °F /  23.6 °C 29.99in /  1015.5hPa Calm     53.7% 0.00in /  0mm 56 W/m2
16:59 93.7 °F /  34.3 °C 74.7 °F /  23.7 °C 29.99in /  1015.5hPa Calm     54.3% 0.00in /  0mm 54 W/m2
17:04 93.6 °F /  34.2 °C 74.9 °F /  23.8 °C 29.99in /  1015.5hPa Calm     54.8% 0.00in /  0mm 54 W/m2
17:09 93.4 °F /  34.1 °C 74.7 °F /  23.7 °C 29.99in /  1015.5hPa Calm     54.7% 0.00in /  0mm 54 W/m2
17:14 93.2 °F /  34 °C 74.5 °F /  23.6 °C 29.99in /  1015.5hPa Calm   2mph /  3.2km/h 54.7% 0.00in /  0mm 54 W/m2
17:19 93.1 °F /  33.9 °C 74.3 °F /  23.5 °C 29.99in /  1015.5hPa Calm   2mph /  3.2km/h 54.6% 0.00in /  0mm 53 W/m2
17:24 93 °F /  33.9 °C 74.1 °F /  23.4 °C 29.98in /  1015.1hPa Calm   2mph /  3.2km/h 54.4% 0.00in /  0mm 49 W/m2
17:29 92.9 °F /  33.8 °C 75.2 °F /  24 °C 29.99in /  1015.5hPa Calm   2mph /  3.2km/h 56.6% 0.00in /  0mm 47 W/m2
17:34 92.8 °F /  33.8 °C 75.4 °F /  24.1 °C 29.99in /  1015.5hPa Calm   2mph /  3.2km/h 57% 0.00in /  0mm 46 W/m2
17:39 92.8 °F /  33.8 °C 75.7 °F /  24.3 °C 29.99in /  1015.5hPa Calm     57.6% 0.00in /  0mm 44 W/m2
17:44 92.6 °F /  33.7 °C 75.7 °F /  24.3 °C 29.99in /  1015.5hPa Calm     58% 0.00in /  0mm 42 W/m2
17:49 92.6 °F /  33.7 °C 76 °F /  24.4 °C 29.99in /  1015.5hPa Calm     58.8% 0.00in /  0mm 40 W/m2
17:54 92.4 °F /  33.6 °C 76 °F /  24.4 °C 29.99in /  1015.5hPa Calm     59% 0.00in /  0mm 40 W/m2
17:59 92.2 °F /  33.4 °C 75.5 °F /  24.2 °C 29.99in /  1015.5hPa Calm     58.3% 0.00in /  0mm 39 W/m2
18:04 92.1 °F /  33.4 °C 75.1 °F /  23.9 °C 29.99in /  1015.5hPa Calm   1mph /  1.6km/h 57.8% 0.00in /  0mm 37 W/m2
18:09 91.9 °F /  33.3 °C 75 °F /  23.9 °C 29.99in /  1015.5hPa Calm   1mph /  1.6km/h 58% 0.00in /  0mm 35 W/m2
18:14 91.6 °F /  33.1 °C 74.4 °F /  23.6 °C 29.99in /  1015.5hPa Calm   1mph /  1.6km/h 57.3% 0.00in /  0mm 32 W/m2
18:19 91.4 °F /  33 °C 74.8 °F /  23.8 °C 30.00in /  1015.8hPa Calm   1mph /  1.6km/h 58.5% 0.00in /  0mm 30 W/m2
18:24 91.2 °F /  32.9 °C 75.3 °F /  24.1 °C 30.00in /  1015.8hPa Calm   1mph /  1.6km/h 59.7% 0.00in /  0mm 28 W/m2
18:29 91 °F /  32.8 °C 75.2 °F /  24 °C 30.00in /  1015.8hPa Calm   1mph /  1.6km/h 60% 0.00in /  0mm 28 W/m2
18:34 90.8 °F /  32.7 °C 75 °F /  23.9 °C 30.00in /  1015.8hPa Calm   1mph /  1.6km/h 60% 0.00in /  0mm 26 W/m2
18:39 90.5 °F /  32.5 °C 74.7 °F /  23.7 °C 30.00in /  1015.8hPa Calm   1mph /  1.6km/h 60% 0.00in /  0mm 25 W/m2
18:44 90.2 °F /  32.3 °C 74.6 °F /  23.7 °C 29.99in /  1015.5hPa Calm   1mph /  1.6km/h 60.2% 0.00in /  0mm 23 W/m2
18:49 90 °F /  32.2 °C 74.7 °F /  23.7 °C 29.99in /  1015.5hPa Calm   1mph /  1.6km/h 61% 0.00in /  0mm 21 W/m2
18:54 89.7 °F /  32.1 °C 74.3 °F /  23.5 °C 29.99in /  1015.5hPa Calm   1mph /  1.6km/h 60.5% 0.00in /  0mm 18 W/m2
18:59 89.5 °F /  31.9 °C 73.8 °F /  23.2 °C 29.99in /  1015.5hPa Calm   1mph /  1.6km/h 60% 0.00in /  0mm 16 W/m2
19:04 89.3 °F /  31.8 °C 73.6 °F /  23.1 °C 29.99in /  1015.5hPa Calm   1mph /  1.6km/h 60% 0.00in /  0mm 12 W/m2
19:09 89 °F /  31.7 °C 73.7 °F /  23.2 °C 29.99in /  1015.5hPa Calm     60.7% 0.00in /  0mm 11 W/m2
19:14 88.7 °F /  31.5 °C 73.6 °F /  23.1 °C 29.99in /  1015.5hPa Calm     61% 0.00in /  0mm 9 W/m2
19:19 88.5 °F /  31.4 °C 73.6 °F /  23.1 °C 30.00in /  1015.8hPa Calm     61.7% 0.00in /  0mm 5 W/m2
19:24 88.2 °F /  31.2 °C 73.5 °F /  23.1 °C 30.00in /  1015.8hPa Calm     62% 0.00in /  0mm 0 W/m2
19:29 87.8 °F /  31 °C 73.2 °F /  22.9 °C 30.00in /  1015.8hPa Calm     62% 0.00in /  0mm 0 W/m2
19:34 87.5 °F /  30.8 °C 72.9 °F /  22.7 °C 29.99in /  1015.5hPa Calm     62% 0.00in /  0mm 0 W/m2
19:39 87.2 °F /  30.7 °C 72.9 °F /  22.7 °C 30.00in /  1015.8hPa Calm     62.7% 0.00in /  0mm 0 W/m2
19:44 86.9 °F /  30.5 °C 73.1 °F /  22.8 °C 30.00in /  1015.8hPa Calm     63.7% 0.00in /  0mm 0 W/m2
19:49 86.6 °F /  30.3 °C 73.4 °F /  23 °C 29.99in /  1015.5hPa Calm     64.9% 0.00in /  0mm 0 W/m2
19:54 86.3 °F /  30.2 °C 73.2 °F /  22.9 °C 29.99in /  1015.5hPa Calm     65% 0.00in /  0mm 0 W/m2
19:59 86 °F /  30 °C 72.9 °F /  22.7 °C 30.00in /  1015.8hPa Calm     65% 0.00in /  0mm 0 W/m2
20:00 85.8 °F /  29.9 °C 72.7 °F /  22.6 °C 29.99in /  1015.5hPa Calm     65% 0.00in /  0mm 0 W/m2
20:09 85.4 °F /  29.7 °C 72.7 °F /  22.6 °C 30.00in /  1015.8hPa Calm     66% 0.00in /  0mm 0 W/m2
20:14 85.1 °F /  29.5 °C 72.5 °F /  22.5 °C 30.00in /  1015.8hPa Calm     66% 0.00in /  0mm 0 W/m2
20:19 84.9 °F /  29.4 °C 72.6 °F /  22.6 °C 30.00in /  1015.8hPa Calm     66.9% 0.00in /  0mm 0 W/m2
20:24 84.6 °F /  29.2 °C 72.4 °F /  22.4 °C 30.00in /  1015.8hPa Calm     67% 0.00in /  0mm 0 W/m2
20:29 84.4 °F /  29.1 °C 72.5 °F /  22.5 °C 30.00in /  1015.8hPa Calm     67.6% 0.00in /  0mm 0 W/m2
20:34 84.2 °F /  29 °C 72.6 °F /  22.6 °C 30.00in /  1015.8hPa Calm     68.3% 0.00in /  0mm 0 W/m2
20:39 84 °F /  28.9 °C 72.7 °F /  22.6 °C 30.00in /  1015.8hPa Calm     69% 0.00in /  0mm 0 W/m2
20:44 83.8 °F /  28.8 °C 72.9 °F /  22.7 °C 30.00in /  1015.8hPa Calm     69.9% 0.00in /  0mm 0 W/m2
20:49 83.6 °F /  28.7 °C 72.9 °F /  22.7 °C 30.00in /  1015.8hPa Calm     70.2% 0.00in /  0mm 0 W/m2
20:54 83.5 °F /  28.6 °C 73.1 °F /  22.8 °C 30.00in /  1015.8hPa Calm     71% 0.00in /  0mm 0 W/m2
20:59 83.4 °F /  28.6 °C 73.4 °F /  23 °C 30.01in /  1016.1hPa Calm     72% 0.00in /  0mm 0 W/m2
21:04 83.2 °F /  28.4 °C 73.4 °F /  23 °C 30.01in /  1016.1hPa Calm     72.5% 0.00in /  0mm 0 W/m2
21:09 83 °F /  28.3 °C 73.6 °F /  23.1 °C 30.01in /  1016.1hPa Calm     73.3% 0.00in /  0mm 0 W/m2
21:14 82.8 °F /  28.2 °C 73.7 °F /  23.2 °C 30.01in /  1016.1hPa Calm     74% 0.00in /  0mm 0 W/m2
21:19 82.6 °F /  28.1 °C 73.7 °F /  23.2 °C 30.01in /  1016.1hPa Calm     74.4% 0.00in /  0mm 0 W/m2
21:24 82.4 °F /  28 °C 73.7 °F /  23.2 °C 30.01in /  1016.1hPa Calm     75% 0.00in /  0mm 0 W/m2
21:29 82.2 °F /  27.9 °C 73.9 °F /  23.3 °C 30.01in /  1016.1hPa Calm     76% 0.00in /  0mm 0 W/m2
21:34 82 °F /  27.8 °C 73.9 °F /  23.3 °C 30.01in /  1016.1hPa Calm     76.5% 0.00in /  0mm 0 W/m2
21:39 81.8 °F /  27.7 °C 73.9 °F /  23.3 °C 30.01in /  1016.1hPa Calm     77% 0.00in /  0mm 0 W/m2
21:44 81.7 °F /  27.6 °C 73.9 °F /  23.3 °C 30.01in /  1016.1hPa Calm     77.5% 0.00in /  0mm 0 W/m2
21:49 81.5 °F /  27.5 °C 74 °F /  23.3 °C 30.01in /  1016.1hPa Calm     78% 0.00in /  0mm 0 W/m2
21:54 81.3 °F /  27.4 °C 74 °F /  23.3 °C 30.02in /  1016.5hPa Calm     78.4% 0.00in /  0mm 0 W/m2
21:59 81.2 °F /  27.3 °C 74.1 °F /  23.4 °C 30.02in /  1016.5hPa Calm     79% 0.00in /  0mm 0 W/m2
22:04 81.1 °F /  27.3 °C 74 °F /  23.3 °C 30.02in /  1016.5hPa Calm     79% 0.00in /  0mm 0 W/m2
22:09 81 °F /  27.2 °C 74.2 °F /  23.4 °C 30.02in /  1016.5hPa Calm     80% 0.00in /  0mm 0 W/m2
22:14 80.9 °F /  27.2 °C 74.3 °F /  23.5 °C 30.02in /  1016.5hPa Calm     80.5% 0.00in /  0mm 0 W/m2
22:19 80.8 °F /  27.1 °C 74.4 °F /  23.6 °C 30.02in /  1016.5hPa Calm     81% 0.00in /  0mm 0 W/m2
22:24 80.8 °F /  27.1 °C 74.4 °F /  23.6 °C 30.02in /  1016.5hPa Calm     81% 0.00in /  0mm 0 W/m2
22:29 80.8 °F /  27.1 °C 74.4 °F /  23.6 °C 30.02in /  1016.5hPa Calm     81% 0.00in /  0mm 0 W/m2
22:34 80.8 °F /  27.1 °C 74.4 °F /  23.6 °C 30.02in /  1016.5hPa Calm     81% 0.00in /  0mm 0 W/m2
22:39 80.8 °F /  27.1 °C 74.4 °F /  23.6 °C 30.02in /  1016.5hPa Calm     81% 0.00in /  0mm 0 W/m2
22:44 80.8 °F /  27.1 °C 74.5 °F /  23.6 °C 30.02in /  1016.5hPa Calm     81.2% 0.00in /  0mm 0 W/m2
22:49 80.8 °F /  27.1 °C 74.8 °F /  23.8 °C 30.02in /  1016.5hPa Calm     82% 0.00in /  0mm 0 W/m2
22:54 80.8 °F /  27.1 °C 74.8 °F /  23.8 °C 30.02in /  1016.5hPa Calm     82% 0.00in /  0mm 0 W/m2
22:59 80.8 °F /  27.1 °C 74.8 °F /  23.8 °C 30.02in /  1016.5hPa Calm     82% 0.00in /  0mm 0 W/m2
23:04 80.8 °F /  27.1 °C 74.8 °F /  23.8 °C 30.02in /  1016.5hPa Calm     82% 0.00in /  0mm 0 W/m2
23:09 80.7 °F /  27.1 °C 74.7 °F /  23.7 °C 30.02in /  1016.5hPa Calm     82% 0.00in /  0mm 0 W/m2
23:14 80.7 °F /  27.1 °C 74.7 °F /  23.7 °C 30.02in /  1016.5hPa Calm     82% 0.00in /  0mm 0 W/m2
23:19 80.6 °F /  27 °C 74.6 °F /  23.7 °C 30.02in /  1016.5hPa Calm     82% 0.00in /  0mm 0 W/m2
23:24 80.6 °F /  27 °C 74.6 °F /  23.7 °C 30.02in /  1016.5hPa Calm     82% 0.00in /  0mm 0 W/m2
23:29 80.5 °F /  26.9 °C 74.5 °F /  23.6 °C 30.02in /  1016.5hPa Calm     82% 0.00in /  0mm 0 W/m2
23:34 80.5 °F /  26.9 °C 74.8 °F /  23.8 °C 30.02in /  1016.5hPa Calm     82.9% 0.00in /  0mm 0 W/m2
Hartford County Weather
Compliments of Weather Underground - 4 mb